Time;durP1;ratioP1;P1;durP2;ratioP2;P2;SDS_P1;SDS_P2;PMS_P1;PMS_P2;Temp;Humidity;BMP_temperature;BMP_pressure;BME280_temperature;BME280_humidity;BME280_pressure;Samples;Min_cycle;Max_cycle;Signal;HPM_P1;HPM_P2
2023/04/28 00:01:38;;;;;;;7.22;3.42;;;;;;;;;;5128920;27;20789;-73
2023/04/28 00:04:47;;;;;;;12.07;5.45;;;;;;;;;;5127637;27;20047;-74
2023/04/28 00:07:25;;;;;;;8.93;4.53;;;;;;;;;;5128610;27;20050;-75
2023/04/28 00:09:58;;;;;;;9.43;4.47;;;;;;;;;;5127779;27;20525;-76
2023/04/28 00:12:44;;;;;;;8.05;4.65;;;;;;;;;;5128303;27;20055;-76
2023/04/28 00:15:20;;;;;;;13.13;4.45;;;;;;;;;;5128028;27;20047;-76
2023/04/28 00:17:58;;;;;;;6.80;4.28;;;;;;;;;;5128597;27;20047;-75
2023/04/28 00:20:52;;;;;;;8.73;4.10;;;;;;;;;;5129035;27;20043;-76
2023/04/28 00:23:27;;;;;;;7.32;4.25;;;;;;;;;;5128387;27;20584;-74
2023/04/28 00:26:03;;;;;;;9.70;4.35;;;;;;;;;;5128613;27;20047;-74
2023/04/28 00:28:41;;;;;;;7.68;4.68;;;;;;;;;;5128090;27;20062;-76
2023/04/28 00:31:15;;;;;;;9.10;4.50;;;;;;;;;;5125873;27;20051;-72
2023/04/28 00:33:49;;;;;;;8.00;4.10;;;;;;;;;;5128311;27;20529;-76
2023/04/28 00:36:32;;;;;;;6.53;4.70;;;;;;;;;;5128612;27;20047;-73
2023/04/28 00:39:07;;;;;;;7.53;4.88;;;;;;;;;;5127608;27;20059;-74
2023/04/28 00:41:42;;;;;;;7.90;4.13;;;;;;;;;;5126190;27;20664;-77
2023/04/28 00:44:14;;;;;;;10.60;5.15;;;;;;;;;;5128320;27;20047;-73
2023/04/28 00:46:56;;;;;;;6.32;3.97;;;;;;;;;;5127420;27;20043;-76
2023/04/28 00:49:32;;;;;;;7.10;4.03;;;;;;;;;;5128015;27;20047;-76
2023/04/28 00:52:09;;;;;;;10.63;5.10;;;;;;;;;;5127940;27;20066;-76
2023/04/28 00:54:42;;;;;;;7.40;4.20;;;;;;;;;;5126927;27;20055;-77
2023/04/28 00:57:26;;;;;;;7.07;4.57;;;;;;;;;;5125089;27;20051;-74
2023/04/28 01:00:04;;;;;;;10.05;4.50;;;;;;;;;;5124396;27;20059;-76
2023/04/28 01:02:52;;;;;;;9.18;4.50;;;;;;;;;;5126615;27;20047;-75
2023/04/28 01:05:43;;;;;;;6.95;4.22;;;;;;;;;;5125852;27;20066;-76
2023/04/28 01:08:37;;;;;;;6.40;4.60;;;;;;;;;;5125466;27;20059;-75
2023/04/28 01:11:21;;;;;;;7.10;4.60;;;;;;;;;;5124882;27;20055;-75
2023/04/28 01:14:02;;;;;;;10.02;5.07;;;;;;;;;;5127997;27;20055;-76
2023/04/28 01:16:41;;;;;;;7.45;4.93;;;;;;;;;;5125590;27;20059;-77
2023/04/28 01:19:27;;;;;;;10.20;4.93;;;;;;;;;;5126140;27;20058;-75
2023/04/28 01:21:59;;;;;;;9.13;4.70;;;;;;;;;;5128019;27;20062;-74
2023/04/28 01:24:32;;;;;;;6.55;4.43;;;;;;;;;;5125085;27;20065;-74
2023/04/28 01:27:23;;;;;;;5.78;4.75;;;;;;;;;;5121840;27;20051;-76
2023/04/28 01:29:57;;;;;;;12.63;5.13;;;;;;;;;;5124880;27;20051;-74
2023/04/28 01:32:28;;;;;;;6.97;4.18;;;;;;;;;;5127537;27;20117;-73
2023/04/28 01:35:03;;;;;;;7.47;4.53;;;;;;;;;;5109138;27;20513;-75
2023/04/28 01:37:37;;;;;;;13.32;3.95;;;;;;;;;;5124733;27;20403;-74
2023/04/28 01:40:10;;;;;;;7.63;4.03;;;;;;;;;;5127319;27;20049;-75
2023/04/28 01:42:42;;;;;;;9.77;4.72;;;;;;;;;;5124609;27;20055;-72
2023/04/28 01:45:14;;;;;;;8.32;4.95;;;;;;;;;;5125017;27;20397;-75
2023/04/28 01:47:46;;;;;;;6.90;4.68;;;;;;;;;;5108565;27;20528;-75
2023/04/28 01:50:17;;;;;;;8.75;5.20;;;;;;;;;;5127185;27;20401;-73
2023/04/28 01:52:48;;;;;;;9.73;5.50;;;;;;;;;;5126473;27;20047;-75
2023/04/28 01:55:20;;;;;;;10.05;5.35;;;;;;;;;;5125873;27;20054;-75
2023/04/28 01:57:52;;;;;;;9.15;4.43;;;;;;;;;;5124455;27;20433;-74
2023/04/28 02:00:25;;;;;;;8.77;4.47;;;;;;;;;;5124750;27;20518;-77
2023/04/28 02:02:57;;;;;;;6.85;4.50;;;;;;;;;;5126869;27;20410;-74
2023/04/28 02:05:28;;;;;;;9.07;5.57;;;;;;;;;;5124576;27;20051;-72
2023/04/28 02:07:59;;;;;;;8.38;4.75;;;;;;;;;;5124542;27;20062;-75
2023/04/28 02:10:30;;;;;;;7.00;5.18;;;;;;;;;;5124809;27;20051;-74
2023/04/28 02:13:01;;;;;;;9.40;4.85;;;;;;;;;;5124049;27;20061;-75
2023/04/28 02:15:34;;;;;;;9.40;5.03;;;;;;;;;;5124397;27;20062;-74
2023/04/28 02:18:06;;;;;;;8.27;4.85;;;;;;;;;;5126249;27;20399;-73
2023/04/28 02:20:41;;;;;;;9.85;5.78;;;;;;;;;;5126444;27;20592;-75
2023/04/28 02:23:12;;;;;;;8.75;5.10;;;;;;;;;;5126838;27;20409;-75
2023/04/28 02:25:43;;;;;;;10.52;4.82;;;;;;;;;;5126252;27;20050;-74
2023/04/28 02:28:16;;;;;;;8.18;5.55;;;;;;;;;;5126347;27;20043;-72
2023/04/28 02:30:50;;;;;;;17.85;6.00;;;;;;;;;;5126632;27;20746;-75
2023/04/28 02:33:20;;;;;;;8.63;5.35;;;;;;;;;;5126098;27;20046;-75
2023/04/28 02:35:59;;;;;;;8.73;5.10;;;;;;;;;;5123306;27;20521;-75
2023/04/28 02:38:30;;;;;;;13.48;5.50;;;;;;;;;;5126133;27;20046;-76
2023/04/28 02:41:03;;;;;;;8.77;4.20;;;;;;;;;;5126294;27;20481;-75
2023/04/28 02:43:37;;;;;;;12.48;5.40;;;;;;;;;;5126142;27;20070;-74
2023/04/28 02:46:07;;;;;;;9.23;4.45;;;;;;;;;;5123965;27;20051;-75
2023/04/28 02:48:39;;;;;;;8.40;4.47;;;;;;;;;;5124600;27;20485;-73
2023/04/28 02:51:13;;;;;;;7.03;4.38;;;;;;;;;;5126175;27;20058;-76
2023/04/28 02:53:43;;;;;;;5.82;4.70;;;;;;;;;;5123483;27;20054;-75
2023/04/28 02:56:13;;;;;;;7.13;5.53;;;;;;;;;;5124252;27;20718;-72
2023/04/28 02:58:43;;;;;;;8.32;5.40;;;;;;;;;;5123984;27;20055;-74
2023/04/28 03:01:14;;;;;;;9.20;5.50;;;;;;;;;;5124182;27;20054;-74
2023/04/28 03:03:45;;;;;;;11.77;5.38;;;;;;;;;;5125643;27;20047;-74
2023/04/28 03:06:16;;;;;;;9.93;5.90;;;;;;;;;;5126003;27;20058;-75
2023/04/28 03:08:46;;;;;;;8.45;4.43;;;;;;;;;;5125798;27;20027;-74
2023/04/28 03:11:17;;;;;;;10.88;5.47;;;;;;;;;;5123721;28;20081;-73
2023/04/28 03:13:48;;;;;;;9.63;4.97;;;;;;;;;;5123340;28;20039;-74
2023/04/28 03:16:19;;;;;;;7.13;4.28;;;;;;;;;;5124241;28;20509;-75
2023/04/28 03:18:49;;;;;;;11.27;5.57;;;;;;;;;;5126072;28;20047;-72
2023/04/28 03:21:20;;;;;;;6.60;4.65;;;;;;;;;;5126015;28;20039;-74
2023/04/28 03:23:51;;;;;;;10.13;4.68;;;;;;;;;;5125660;28;20062;-75
2023/04/28 03:26:22;;;;;;;5.65;4.85;;;;;;;;;;5123471;28;20078;-76
2023/04/28 03:28:53;;;;;;;9.05;4.65;;;;;;;;;;5122948;28;20498;-73
2023/04/28 03:31:23;;;;;;;8.38;4.63;;;;;;;;;;5124932;27;20422;-74
2023/04/28 03:33:58;;;;;;;8.70;4.57;;;;;;;;;;5123560;28;20063;-75
2023/04/28 03:36:29;;;;;;;13.85;5.32;;;;;;;;;;5123386;28;20499;-73
2023/04/28 03:39:08;;;;;;;8.60;5.07;;;;;;;;;;5123389;28;20055;-74
2023/04/28 03:41:38;;;;;;;12.70;5.60;;;;;;;;;;5123193;28;20409;-75
2023/04/28 03:44:27;;;;;;;13.80;5.60;;;;;;;;;;5132152;27;20059;-74
2023/04/28 03:47:00;;;;;;;8.05;4.28;;;;;;;;;;5123493;28;20532;-73
2023/04/28 03:49:30;;;;;;;10.48;5.60;;;;;;;;;;5123511;28;20401;-73
2023/04/28 03:52:03;;;;;;;6.72;4.88;;;;;;;;;;5123828;28;20050;-74
2023/04/28 03:54:33;;;;;;;11.07;4.70;;;;;;;;;;5125429;28;20066;-74
2023/04/28 03:57:05;;;;;;;6.40;4.90;;;;;;;;;;5123817;28;20532;-73
2023/04/28 03:59:35;;;;;;;8.88;4.80;;;;;;;;;;5125502;27;20047;-73
2023/04/28 04:02:05;;;;;;;10.68;5.22;;;;;;;;;;5129246;27;20051;-73
2023/04/28 04:04:35;;;;;;;7.25;3.78;;;;;;;;;;5127582;27;20054;-73
2023/04/28 04:07:06;;;;;;;4.80;3.63;;;;;;;;;;5126996;27;20047;-72
2023/04/28 04:09:37;;;;;;;7.20;4.97;;;;;;;;;;5127087;27;20059;-75
2023/04/28 04:12:08;;;;;;;10.50;5.20;;;;;;;;;;5127517;27;20047;-74
2023/04/28 04:14:37;;;;;;;11.27;4.80;;;;;;;;;;5127975;27;20847;-75
2023/04/28 04:17:08;;;;;;;11.77;4.97;;;;;;;;;;5126863;27;20047;-75
2023/04/28 04:19:40;;;;;;;8.90;5.20;;;;;;;;;;5127185;27;20058;-73
2023/04/28 04:22:11;;;;;;;9.70;5.10;;;;;;;;;;5127282;27;20062;-75
2023/04/28 04:24:42;;;;;;;13.45;5.60;;;;;;;;;;5127694;27;20062;-73
2023/04/28 04:27:12;;;;;;;9.45;5.38;;;;;;;;;;5127143;27;20494;-76
2023/04/28 04:29:43;;;;;;;11.07;5.10;;;;;;;;;;5128411;27;20490;-72
2023/04/28 04:32:14;;;;;;;6.78;4.50;;;;;;;;;;5127201;27;20059;-76
2023/04/28 04:34:45;;;;;;;8.35;5.60;;;;;;;;;;5127136;27;20047;-74
2023/04/28 04:37:15;;;;;;;10.93;6.18;;;;;;;;;;5127135;27;20047;-74
2023/04/28 04:39:55;;;;;;;9.05;5.18;;;;;;;;;;5126771;27;20654;-72
2023/04/28 04:42:26;;;;;;;11.50;5.85;;;;;;;;;;5126238;27;20066;-73
2023/04/28 04:45:06;;;;;;;8.43;5.55;;;;;;;;;;5126381;27;20132;-74
2023/04/28 04:47:38;;;;;;;9.00;5.57;;;;;;;;;;5126079;27;20047;-74
2023/04/28 04:50:10;;;;;;;8.27;5.32;;;;;;;;;;5126364;27;20051;-72
2023/04/28 04:52:40;;;;;;;8.75;5.47;;;;;;;;;;5126805;27;20051;-74
2023/04/28 04:55:12;;;;;;;9.73;5.15;;;;;;;;;;5126595;27;20054;-73
2023/04/28 04:57:43;;;;;;;9.75;4.65;;;;;;;;;;5126414;27;20528;-73
2023/04/28 05:00:32;;;;;;;12.80;5.43;;;;;;;;;;5128255;27;20051;-74
2023/04/28 05:03:04;;;;;;;7.45;5.28;;;;;;;;;;5126491;27;20058;-76
2023/04/28 05:05:35;;;;;;;8.65;4.28;;;;;;;;;;5126251;27;20050;-75
2023/04/28 05:08:13;;;;;;;6.45;4.80;;;;;;;;;;5125486;27;20055;-74
2023/04/28 05:10:43;;;;;;;10.85;5.13;;;;;;;;;;5124998;27;20055;-75
2023/04/28 05:13:14;;;;;;;10.35;5.05;;;;;;;;;;5125947;27;20058;-72
2023/04/28 05:15:46;;;;;;;8.65;5.15;;;;;;;;;;5125761;27;20043;-73
2023/04/28 05:18:30;;;;;;;9.40;5.00;;;;;;;;;;5125706;27;20050;-72
2023/04/28 05:21:02;;;;;;;8.88;4.88;;;;;;;;;;5125557;27;20043;-73
2023/04/28 05:23:34;;;;;;;11.30;4.88;;;;;;;;;;5125214;27;20070;-73
2023/04/28 05:26:05;;;;;;;7.85;4.68;;;;;;;;;;5125420;27;20528;-73
2023/04/28 05:28:36;;;;;;;8.88;5.15;;;;;;;;;;5127863;27;20051;-72
2023/04/28 05:31:06;;;;;;;9.23;6.05;;;;;;;;;;5125419;27;20544;-73
2023/04/28 05:33:37;;;;;;;9.40;5.47;;;;;;;;;;5124984;27;20050;-74
2023/04/28 05:36:10;;;;;;;8.63;5.22;;;;;;;;;;5126735;27;20062;-73
2023/04/28 05:38:41;;;;;;;11.75;4.78;;;;;;;;;;5125204;27;20536;-73
2023/04/28 05:41:19;;;;;;;10.18;5.25;;;;;;;;;;5125405;27;20541;-74
2023/04/28 05:43:50;;;;;;;7.55;5.32;;;;;;;;;;5124585;27;20055;-74
2023/04/28 05:46:20;;;;;;;6.90;4.53;;;;;;;;;;5125297;27;20517;-73
2023/04/28 05:48:58;;;;;;;9.32;5.72;;;;;;;;;;5125141;27;20055;-73
2023/04/28 05:51:33;;;;;;;11.75;5.32;;;;;;;;;;5125821;27;20552;-74
2023/04/28 05:54:03;;;;;;;11.65;5.28;;;;;;;;;;5124863;27;20051;-73
2023/04/28 05:56:41;;;;;;;8.43;5.90;;;;;;;;;;5124735;27;20382;-71
2023/04/28 05:59:11;;;;;;;9.43;5.63;;;;;;;;;;5125034;27;20051;-74
2023/04/28 06:01:42;;;;;;;12.50;6.03;;;;;;;;;;5126507;27;20058;-74
2023/04/28 06:04:12;;;;;;;10.20;5.13;;;;;;;;;;5124900;27;20417;-73
2023/04/28 06:06:43;;;;;;;11.27;6.00;;;;;;;;;;5124147;27;20039;-73
2023/04/28 06:09:13;;;;;;;10.88;5.90;;;;;;;;;;5124432;27;20516;-73
2023/04/28 06:11:45;;;;;;;13.90;6.25;;;;;;;;;;5124903;27;20039;-74
2023/04/28 06:14:15;;;;;;;7.90;5.65;;;;;;;;;;5126371;27;20035;-73
2023/04/28 06:16:46;;;;;;;9.68;6.22;;;;;;;;;;5127060;27;20050;-72
2023/04/28 06:19:18;;;;;;;9.82;5.30;;;;;;;;;;5124374;27;20070;-73
2023/04/28 06:21:51;;;;;;;9.20;5.70;;;;;;;;;;5124028;27;20782;-74
2023/04/28 06:24:22;;;;;;;9.23;5.18;;;;;;;;;;5124603;27;20051;-72
2023/04/28 06:26:56;;;;;;;10.73;6.43;;;;;;;;;;5124470;27;20525;-71
2023/04/28 06:29:28;;;;;;;7.38;5.40;;;;;;;;;;5124291;27;20420;-73
2023/04/28 06:31:59;;;;;;;10.40;6.72;;;;;;;;;;5125671;27;20043;-72
2023/04/28 06:34:30;;;;;;;10.48;5.85;;;;;;;;;;5124022;27;20031;-74
2023/04/28 06:37:00;;;;;;;7.80;5.65;;;;;;;;;;5126882;27;20379;-74
2023/04/28 06:39:31;;;;;;;10.30;5.75;;;;;;;;;;5124418;27;20074;-73
2023/04/28 06:42:03;;;;;;;11.30;5.85;;;;;;;;;;5124150;27;20656;-73
2023/04/28 06:44:36;;;;;;;11.38;5.53;;;;;;;;;;5123668;27;20055;-71
2023/04/28 06:47:07;;;;;;;11.23;6.03;;;;;;;;;;5126174;27;20051;-72
2023/04/28 06:49:39;;;;;;;9.85;5.60;;;;;;;;;;5107382;27;20046;-73
2023/04/28 06:52:10;;;;;;;9.18;5.25;;;;;;;;;;5126149;27;20062;-73
2023/04/28 06:54:43;;;;;;;10.90;5.30;;;;;;;;;;5124562;27;20402;-74
2023/04/28 06:57:14;;;;;;;8.07;5.57;;;;;;;;;;5124377;27;20054;-73
2023/04/28 06:59:45;;;;;;;6.28;4.90;;;;;;;;;;5126632;27;20043;-74
2023/04/28 07:02:15;;;;;;;7.28;5.28;;;;;;;;;;5126046;27;20051;-71
2023/04/28 07:04:48;;;;;;;11.52;5.97;;;;;;;;;;5126063;27;20050;-72
2023/04/28 07:07:19;;;;;;;8.52;5.07;;;;;;;;;;5126235;27;20047;-72
2023/04/28 07:09:52;;;;;;;9.45;4.97;;;;;;;;;;5126155;27;20035;-73
2023/04/28 07:12:22;;;;;;;9.52;5.70;;;;;;;;;;5125961;28;20058;-74
2023/04/28 07:14:54;;;;;;;9.90;4.22;;;;;;;;;;5126291;28;20050;-72
2023/04/28 07:17:25;;;;;;;10.00;4.82;;;;;;;;;;5125753;28;20035;-72
2023/04/28 07:19:55;;;;;;;12.93;5.07;;;;;;;;;;5125012;28;20062;-72
2023/04/28 07:22:25;;;;;;;12.02;5.82;;;;;;;;;;5125428;28;20074;-72
2023/04/28 07:24:56;;;;;;;9.18;5.35;;;;;;;;;;5125286;28;20058;-73
2023/04/28 07:27:27;;;;;;;13.90;5.65;;;;;;;;;;5126085;28;20043;-73
2023/04/28 07:29:57;;;;;;;8.10;5.40;;;;;;;;;;5125743;28;20051;-72
2023/04/28 07:32:30;;;;;;;9.05;4.97;;;;;;;;;;5125343;28;20051;-73
2023/04/28 07:35:00;;;;;;;9.55;5.32;;;;;;;;;;5127827;27;20057;-73
2023/04/28 07:37:31;;;;;;;7.72;4.75;;;;;;;;;;5129770;27;20059;-74
2023/04/28 07:40:01;;;;;;;7.85;5.15;;;;;;;;;;5129634;27;20516;-74
2023/04/28 07:42:33;;;;;;;9.38;5.13;;;;;;;;;;5129288;27;20062;-72
2023/04/28 07:45:04;;;;;;;8.35;4.55;;;;;;;;;;5129020;27;20039;-72
2023/04/28 07:47:36;;;;;;;9.55;5.05;;;;;;;;;;5130173;27;20520;-72
2023/04/28 07:50:08;;;;;;;8.18;5.25;;;;;;;;;;5129262;27;20051;-71
2023/04/28 07:52:38;;;;;;;9.52;5.47;;;;;;;;;;5129820;27;20525;-73
2023/04/28 07:55:08;;;;;;;9.02;4.50;;;;;;;;;;5127702;27;20054;-72
2023/04/28 07:57:39;;;;;;;6.68;4.95;;;;;;;;;;5128982;27;20047;-72
2023/04/28 08:00:11;;;;;;;7.90;5.15;;;;;;;;;;5129442;27;20058;-72
2023/04/28 08:02:42;;;;;;;6.18;4.53;;;;;;;;;;5129902;27;20042;-73
2023/04/28 08:05:12;;;;;;;8.98;5.40;;;;;;;;;;5129467;27;20497;-74
2023/04/28 08:07:43;;;;;;;9.90;5.10;;;;;;;;;;5128580;27;20043;-73
2023/04/28 08:10:14;;;;;;;12.20;5.32;;;;;;;;;;5129188;27;20051;-73
2023/04/28 08:12:46;;;;;;;7.18;5.28;;;;;;;;;;5129106;27;20470;-73
2023/04/28 08:15:16;;;;;;;7.07;5.13;;;;;;;;;;5128974;27;20508;-72
2023/04/28 08:17:46;;;;;;;9.77;4.95;;;;;;;;;;5128844;27;20043;-72
2023/04/28 08:20:18;;;;;;;8.27;4.72;;;;;;;;;;5128904;27;20520;-72
2023/04/28 08:22:52;;;;;;;;;;;;;;;;;;5127354;27;20054;-73
2023/04/28 08:25:22;;;;;;;14.05;5.78;;;;;;;;;;5128896;27;20401;-73
2023/04/28 08:27:54;;;;;;;14.88;6.13;;;;;;;;;;5128106;27;20047;-73
2023/04/28 08:30:25;;;;;;;9.18;6.47;;;;;;;;;;5126238;27;20513;-73
2023/04/28 08:32:55;;;;;;;13.65;6.43;;;;;;;;;;5125887;27;20055;-73
2023/04/28 08:35:26;;;;;;;9.55;5.65;;;;;;;;;;5128743;27;20490;-73
2023/04/28 08:37:57;;;;;;;15.15;6.93;;;;;;;;;;5128711;27;20525;-73
2023/04/28 08:40:28;;;;;;;12.95;6.57;;;;;;;;;;5128781;27;20051;-74
2023/04/28 08:43:01;;;;;;;17.40;7.82;;;;;;;;;;5128506;27;20059;-73
2023/04/28 08:45:39;;;;;;;73.28;10.70;;;;;;;;;;5126504;27;20047;-73
2023/04/28 08:48:20;;;;;;;27.52;7.90;;;;;;;;;;5128393;27;20055;-74
2023/04/28 08:50:53;;;;;;;19.42;7.50;;;;;;;;;;5128665;27;20520;-74
2023/04/28 08:53:31;;;;;;;22.02;7.90;;;;;;;;;;5128324;27;20054;-72
2023/04/28 08:56:06;;;;;;;19.98;7.68;;;;;;;;;;5128617;27;20391;-73
2023/04/28 08:58:36;;;;;;;;;;;;;;;;;;5128531;27;20413;-73
2023/04/28 09:01:06;;;;;;;12.85;6.43;;;;;;;;;;5128264;27;20305;-74
2023/04/28 09:03:37;;;;;;;15.90;5.95;;;;;;;;;;5128107;27;20047;-74
2023/04/28 09:06:08;;;;;;;18.80;6.85;;;;;;;;;;5125770;27;20051;-73
2023/04/28 09:08:38;;;;;;;9.13;5.80;;;;;;;;;;5127772;27;20050;-74
2023/04/28 09:11:11;;;;;;;12.05;4.95;;;;;;;;;;5128064;27;20050;-73
2023/04/28 09:13:42;;;;;;;10.50;5.47;;;;;;;;;;5127977;27;20061;-72
2023/04/28 09:16:12;;;;;;;8.18;5.05;;;;;;;;;;5127782;27;20058;-73
2023/04/28 09:18:58;;;;;;;7.78;5.40;;;;;;;;;;5127110;27;20062;-74
2023/04/28 09:21:28;;;;;;;6.97;5.05;;;;;;;;;;5127591;27;20055;-74
2023/04/28 09:23:59;;;;;;;7.45;5.38;;;;;;;;;;5127465;27;20069;-73
2023/04/28 09:26:51;;;;;;;9.27;4.85;;;;;;;;;;5127648;27;20074;-73
2023/04/28 09:29:25;;;;;;;10.90;4.78;;;;;;;;;;5127975;27;20043;-73
2023/04/28 09:32:13;;;;;;;6.45;4.38;;;;;;;;;;5127191;27;20405;-73
2023/04/28 09:34:47;;;;;;;9.27;4.75;;;;;;;;;;5127357;27;20047;-73
2023/04/28 09:37:22;;;;;;;6.90;4.68;;;;;;;;;;5127243;27;20047;-73
2023/04/28 09:39:54;;;;;;;10.93;4.38;;;;;;;;;;5127843;27;20389;-76
2023/04/28 09:42:39;;;;;;;9.00;4.47;;;;;;;;;;5125528;27;20417;-75
2023/04/28 09:45:12;;;;;;;9.73;5.00;;;;;;;;;;5127508;27;20047;-73
2023/04/28 09:47:45;;;;;;;10.05;4.05;;;;;;;;;;5126151;27;20441;-73
2023/04/28 09:50:17;;;;;;;7.53;4.53;;;;;;;;;;5126420;27;20576;-72
2023/04/28 09:52:58;;;;;;;6.13;4.15;;;;;;;;;;5127151;27;20039;-79
2023/04/28 09:55:29;;;;;;;6.43;3.72;;;;;;;;;;5124703;27;20046;-74
2023/04/28 09:58:06;;;;;;;5.15;3.63;;;;;;;;;;5126306;27;20047;-73
2023/04/28 10:00:38;;;;;;;5.45;3.78;;;;;;;;;;5126778;27;20046;-74
2023/04/28 10:03:09;;;;;;;6.13;4.28;;;;;;;;;;5127314;27;20142;-71
2023/04/28 10:05:40;;;;;;;5.57;4.15;;;;;;;;;;5126499;27;20034;-73
2023/04/28 10:08:12;;;;;;;11.23;4.13;;;;;;;;;;5126943;27;20047;-72
2023/04/28 10:10:43;;;;;;;8.23;4.65;;;;;;;;;;5126198;27;20050;-73
2023/04/28 10:13:13;;;;;;;12.20;4.60;;;;;;;;;;5126497;27;20039;-72
2023/04/28 10:15:43;;;;;;;;;;;;;;;;;;5127258;27;20405;-72
2023/04/28 10:18:17;;;;;;;12.38;5.50;;;;;;;;;;5126418;27;19924;-73
2023/04/28 10:20:53;;;;;;;8.70;5.20;;;;;;;;;;5125173;27;20501;-72
2023/04/28 10:23:58;;;;;;;13.02;5.32;;;;;;;;;;5126774;27;20054;-71
2023/04/28 10:27:03;;;;;;;10.63;5.00;;;;;;;;;;5126343;27;20047;-73
2023/04/28 10:29:35;;;;;;;6.18;4.50;;;;;;;;;;5125759;27;20044;-74
2023/04/28 10:32:16;;;;;;;10.63;5.10;;;;;;;;;;5125892;27;20410;-73
2023/04/28 10:34:50;;;;;;;10.68;4.15;;;;;;;;;;5125460;27;20076;-73
2023/04/28 10:37:40;;;;;;;14.02;7.32;;;;;;;;;;5126541;27;20513;-72
2023/04/28 10:40:30;;;;;;;20.92;8.35;;;;;;;;;;5123700;27;20055;-73
2023/04/28 10:43:01;;;;;;;11.80;5.93;;;;;;;;;;5125390;27;20047;-72
2023/04/28 10:45:52;;;;;;;9.95;5.60;;;;;;;;;;5124784;27;20487;-72
2023/04/28 10:48:28;;;;;;;8.63;4.75;;;;;;;;;;5125962;27;20376;-72
2023/04/28 10:51:08;;;;;;;7.43;5.32;;;;;;;;;;5125769;27;20051;-72
2023/04/28 10:53:45;;;;;;;11.75;5.97;;;;;;;;;;5126268;27;20070;-73
2023/04/28 10:56:26;;;;;;;14.40;4.82;;;;;;;;;;5125292;27;20043;-73
2023/04/28 10:58:57;;;;;;;12.82;6.00;;;;;;;;;;5126212;27;20039;-76
2023/04/28 11:01:30;;;;;;;18.33;5.50;;;;;;;;;;5126211;27;20039;-73
2023/04/28 11:04:14;;;;;;;28.92;7.07;;;;;;;;;;5125778;27;20043;-73
2023/04/28 11:07:06;;;;;;;10.00;5.60;;;;;;;;;;5125830;27;20039;-73
2023/04/28 11:09:37;;;;;;;12.27;6.50;;;;;;;;;;5125150;27;20051;-73
2023/04/28 11:12:10;;;;;;;;;;;;;;;;;;5125957;28;20047;-73
2023/04/28 11:14:40;;;;;;;9.27;6.03;;;;;;;;;;5126137;28;20313;-74
2023/04/28 11:17:12;;;;;;;8.38;5.70;;;;;;;;;;5125694;28;20055;-74
2023/04/28 11:19:45;;;;;;;9.50;6.32;;;;;;;;;;5125606;28;20055;-73
2023/04/28 11:22:17;;;;;;;8.65;6.85;;;;;;;;;;5126006;28;20065;-74
2023/04/28 11:25:08;;;;;;;9.77;5.65;;;;;;;;;;5125626;28;20497;-73
2023/04/28 11:27:38;;;;;;;9.98;4.22;;;;;;;;;;5125581;28;20524;-73
2023/04/28 11:30:22;;;;;;;9.18;4.03;;;;;;;;;;5107116;28;20509;-75
2023/04/28 11:32:53;;;;;;;15.70;4.22;;;;;;;;;;5125377;28;20059;-75
2023/04/28 11:35:24;;;;;;;4.07;3.30;;;;;;;;;;5124569;27;20559;-75
2023/04/28 11:38:05;;;;;;;6.20;3.40;;;;;;;;;;5125952;28;20051;-73
2023/04/28 11:40:35;;;;;;;10.98;6.50;;;;;;;;;;5125978;28;20047;-74
2023/04/28 11:43:05;;;;;;;3.42;2.70;;;;;;;;;;5125295;28;20059;-75
2023/04/28 11:45:37;;;;;;;6.53;3.05;;;;;;;;;;5124860;28;20047;-74
2023/04/28 11:48:21;;;;;;;5.00;2.78;;;;;;;;;;5125561;28;20043;-77
2023/04/28 11:50:51;;;;;;;3.55;2.90;;;;;;;;;;5124443;27;20544;-74
2023/04/28 11:53:44;;;;;;;6.90;2.83;;;;;;;;;;5125549;28;20051;-75
2023/04/28 11:56:14;;;;;;;5.85;2.70;;;;;;;;;;5125616;28;20070;-74
2023/04/28 11:58:45;;;;;;;3.95;2.22;;;;;;;;;;5125024;28;20066;-74
2023/04/28 12:01:16;;;;;;;4.50;2.63;;;;;;;;;;5125128;28;20412;-75
2023/04/28 12:03:48;;;;;;;6.45;2.30;;;;;;;;;;5125801;28;20504;-73
2023/04/28 12:06:18;;;;;;;4.57;1.90;;;;;;;;;;5123780;28;20425;-75
2023/04/28 12:08:51;;;;;;;7.43;2.33;;;;;;;;;;5125016;28;20070;-75
2023/04/28 12:11:21;;;;;;;10.95;3.28;;;;;;;;;;5124949;28;20049;-74
2023/04/28 12:14:05;;;;;;;5.60;2.58;;;;;;;;;;5124726;28;20078;-74
2023/04/28 12:16:42;;;;;;;4.30;2.70;;;;;;;;;;5125419;28;20405;-73
2023/04/28 12:19:14;;;;;;;8.43;2.85;;;;;;;;;;5125003;28;20055;-74
2023/04/28 12:21:57;;;;;;;4.70;2.63;;;;;;;;;;5128548;27;20046;-74
2023/04/28 12:24:29;;;;;;;8.90;3.38;;;;;;;;;;5129199;27;20054;-72
2023/04/28 12:27:24;;;;;;;5.75;2.80;;;;;;;;;;5128575;27;20058;-73
2023/04/28 12:29:55;;;;;;;6.07;2.60;;;;;;;;;;5129032;27;20391;-72
2023/04/28 12:32:43;;;;;;;4.20;2.60;;;;;;;;;;5128374;27;20055;-75
2023/04/28 12:35:15;;;;;;;5.45;3.03;;;;;;;;;;5127583;27;20055;-72
2023/04/28 12:37:45;;;;;;;7.68;3.13;;;;;;;;;;5128589;27;20043;-73
2023/04/28 12:40:15;;;;;;;5.70;3.42;;;;;;;;;;5128927;27;20066;-73
2023/04/28 12:42:45;;;;;;;3.80;2.70;;;;;;;;;;5127913;27;20051;-73
2023/04/28 12:45:15;;;;;;;4.85;3.22;;;;;;;;;;5128118;27;20039;-73
2023/04/28 12:47:46;;;;;;;6.88;3.17;;;;;;;;;;5126938;27;20038;-74
2023/04/28 12:50:17;;;;;;;3.63;2.40;;;;;;;;;;5128473;27;20047;-72
2023/04/28 12:52:48;;;;;;;6.05;2.85;;;;;;;;;;5128356;27;20047;-76
2023/04/28 12:55:19;;;;;;;6.35;2.55;;;;;;;;;;5127122;27;20650;-72
2023/04/28 12:57:51;;;;;;;4.53;2.63;;;;;;;;;;5126708;27;20039;-73
2023/04/28 13:00:23;;;;;;;2.80;2.33;;;;;;;;;;5125790;27;20058;-73
2023/04/28 13:02:54;;;;;;;4.07;2.58;;;;;;;;;;5127949;27;20051;-73
2023/04/28 13:05:28;;;;;;;17.48;2.85;;;;;;;;;;5127851;27;20062;-73
2023/04/28 13:07:59;;;;;;;2.45;2.10;;;;;;;;;;5128205;27;20039;-73
2023/04/28 13:10:29;;;;;;;3.20;2.67;;;;;;;;;;5127687;27;20066;-74
2023/04/28 13:12:59;;;;;;;4.45;2.70;;;;;;;;;;5128294;27;20506;-72
2023/04/28 13:15:30;;;;;;;9.02;2.65;;;;;;;;;;5128206;27;20055;-74
2023/04/28 13:18:02;;;;;;;3.38;2.65;;;;;;;;;;5127886;27;20054;-74
2023/04/28 13:20:32;;;;;;;6.80;2.78;;;;;;;;;;5127387;27;20043;-73
2023/04/28 13:23:02;;;;;;;7.13;2.78;;;;;;;;;;5127721;27;20058;-74
2023/04/28 13:25:33;;;;;;;4.55;2.92;;;;;;;;;;5127474;27;20046;-73
2023/04/28 13:28:04;;;;;;;5.88;2.90;;;;;;;;;;5127546;27;20047;-73
2023/04/28 13:30:34;;;;;;;4.80;3.92;;;;;;;;;;5128334;27;20501;-74
2023/04/28 13:33:04;;;;;;;5.90;3.13;;;;;;;;;;5126419;27;20051;-75
2023/04/28 13:35:34;;;;;;;6.35;3.22;;;;;;;;;;5126950;27;20055;-74
2023/04/28 13:38:05;;;;;;;4.47;2.40;;;;;;;;;;5127515;27;20055;-73
2023/04/28 13:40:36;;;;;;;21.58;4.60;;;;;;;;;;5127597;27;20047;-74
2023/04/28 13:43:06;;;;;;;5.63;2.30;;;;;;;;;;5126266;27;20520;-72
2023/04/28 13:45:36;;;;;;;6.13;2.40;;;;;;;;;;5127646;27;20378;-73
2023/04/28 13:48:06;;;;;;;5.20;2.33;;;;;;;;;;5127477;27;20046;-75
2023/04/28 13:50:38;;;;;;;2.97;2.05;;;;;;;;;;5127434;27;20054;-75
2023/04/28 13:53:10;;;;;;;4.43;2.67;;;;;;;;;;5125317;27;20043;-74
2023/04/28 13:55:40;;;;;;;4.65;2.60;;;;;;;;;;5127008;27;20051;-75
2023/04/28 13:58:10;;;;;;;3.75;2.10;;;;;;;;;;5126905;27;20043;-73
2023/04/28 14:00:40;;;;;;;3.20;2.25;;;;;;;;;;5126779;27;20050;-75
2023/04/28 14:03:12;;;;;;;3.38;1.90;;;;;;;;;;5126377;27;20059;-74
2023/04/28 14:05:43;;;;;;;3.10;1.92;;;;;;;;;;5126871;27;20050;-76
2023/04/28 14:08:18;;;;;;;4.15;1.50;;;;;;;;;;5127135;27;20054;-76
2023/04/28 14:10:50;;;;;;;4.20;1.52;;;;;;;;;;5126494;27;20047;-74
2023/04/28 14:13:21;;;;;;;4.00;1.70;;;;;;;;;;5127165;27;20047;-74
2023/04/28 14:15:54;;;;;;;2.63;1.63;;;;;;;;;;5126374;27;20047;-74
2023/04/28 14:18:28;;;;;;;3.85;1.60;;;;;;;;;;5126538;27;20051;-74
2023/04/28 14:21:02;;;;;;;2.60;1.45;;;;;;;;;;5126142;27;20053;-74
2023/04/28 14:23:34;;;;;;;6.07;2.50;;;;;;;;;;5126441;27;20047;-75
2023/04/28 14:26:05;;;;;;;2.20;1.45;;;;;;;;;;5126443;27;20066;-74
2023/04/28 14:28:36;;;;;;;11.27;2.80;;;;;;;;;;5126536;27;20058;-75
2023/04/28 14:31:07;;;;;;;3.05;1.45;;;;;;;;;;5126015;27;20523;-74
2023/04/28 14:33:39;;;;;;;2.15;1.52;;;;;;;;;;5125995;27;20054;-76
2023/04/28 14:36:10;;;;;;;8.43;2.60;;;;;;;;;;5126737;27;20743;-74
2023/04/28 14:38:40;;;;;;;6.63;2.28;;;;;;;;;;5126203;27;20054;-74
2023/04/28 14:41:10;;;;;;;3.55;1.75;;;;;;;;;;5125628;27;20050;-74
2023/04/28 14:43:40;;;;;;;3.00;1.50;;;;;;;;;;5124265;27;20062;-74
2023/04/28 14:46:11;;;;;;;2.92;1.95;;;;;;;;;;5125429;27;20043;-74
2023/04/28 14:48:42;;;;;;;4.47;1.63;;;;;;;;;;5126495;27;20047;-73
2023/04/28 14:51:13;;;;;;;4.35;1.65;;;;;;;;;;5126218;27;20520;-73
2023/04/28 14:53:43;;;;;;;6.45;2.10;;;;;;;;;;5125722;27;20054;-72
2023/04/28 14:56:15;;;;;;;4.22;1.77;;;;;;;;;;5125422;27;20070;-71
2023/04/28 14:58:49;;;;;;;1.98;1.63;;;;;;;;;;5126063;27;20054;-74
2023/04/28 15:01:19;;;;;;;1.95;1.35;;;;;;;;;;5125678;27;20047;-76
2023/04/28 15:03:50;;;;;;;4.65;1.65;;;;;;;;;;5126158;27;20081;-74
2023/04/28 15:06:21;;;;;;;4.70;1.70;;;;;;;;;;5125728;27;20035;-75
2023/04/28 15:08:52;;;;;;;3.17;1.70;;;;;;;;;;5126318;27;20058;-73
2023/04/28 15:11:24;;;;;;;3.80;1.50;;;;;;;;;;5123900;27;20058;-73
2023/04/28 15:13:53;;;;;;;6.68;3.47;;;;;;;;;;5106917;28;20050;-73
2023/04/28 15:16:24;;;;;;;1.80;1.52;;;;;;;;;;5125468;28;20856;-73
2023/04/28 15:18:55;;;;;;;2.95;1.30;;;;;;;;;;5125123;27;20055;-74